EZY3207 EGPH-LEMD
Flight info
| Callsign | EZY3207 |
|---|---|
| Flight time | 2h 28m |
| Altitude | 37000 |
| Route | GOSAM1D GOSAM P600 FENIK L612 NAVSO DCT ADZOP DCT EGTOC DCT NOKIN N862 KARNO/N0450F380 DCT ALHUP DCT ABWIV DCT PACSE DCT TONQU DCT SALCO/N0447F370 DCT DELOG DCT VADOX DCT SNR/N0441F330 DCT TITAN DCT RATAS DCT NEA DCT NONTU NONTU4C |
| Aircraft | A320/M-SDE3FGHIRWY/LB1 |
Departure
| Time | 2026-05-06 18:07 |
|---|---|
| Airport | Edinburgh Airport (EGPH) |
Arrival
| Time | 2026-05-06 20:36 |
|---|---|
| Airport | Adolfo Suárez Madrid–Barajas Airport (LEMD) |
| Time | Latitude | Longitude | Altitude | Speed | Heading |
|---|---|---|---|---|---|
| 2026-05-06 17:34 | 55.94657 | -3.36612 | 115 ft | 0 kts | 89° |
| 2026-05-06 17:36 | 55.94658 | -3.36619 | 115 ft | 0 kts | 89° |
| 2026-05-06 17:58 | 55.94658 | -3.36627 | 112 ft | 3 kts | 89° |
| 2026-05-06 17:58 | 55.94656 | -3.36674 | 112 ft | 4 kts | 78° |
| 2026-05-06 17:58 | 55.94648 | -3.36717 | 114 ft | 4 kts | 47° |
| 2026-05-06 17:59 | 55.94632 | -3.36734 | 112 ft | 0 kts | 359° |
| 2026-05-06 18:01 | 55.94636 | -3.36734 | 112 ft | 4 kts | 359° |
| 2026-05-06 18:01 | 55.94699 | -3.36736 | 116 ft | 9 kts | 359° |
| 2026-05-06 18:02 | 55.94758 | -3.36753 | 115 ft | 8 kts | 332° |
| 2026-05-06 18:02 | 55.94810 | -3.36778 | 116 ft | 8 kts | 358° |
| 2026-05-06 18:02 | 55.94859 | -3.36780 | 116 ft | 4 kts | 359° |
| 2026-05-06 18:02 | 55.94889 | -3.36800 | 114 ft | 9 kts | 331° |
| 2026-05-06 18:03 | 55.94922 | -3.36890 | 115 ft | 9 kts | 262° |
| 2026-05-06 18:03 | 55.94897 | -3.36977 | 114 ft | 7 kts | 238° |
| 2026-05-06 18:03 | 55.94856 | -3.37102 | 113 ft | 22 kts | 239° |
| 2026-05-06 18:03 | 55.94746 | -3.37415 | 114 ft | 33 kts | 239° |
| 2026-05-06 18:04 | 55.94630 | -3.37766 | 114 ft | 33 kts | 241° |
| 2026-05-06 18:04 | 55.94510 | -3.38120 | 114 ft | 34 kts | 239° |
| 2026-05-06 18:04 | 55.94387 | -3.38479 | 112 ft | 34 kts | 240° |
| 2026-05-06 18:04 | 55.94305 | -3.38728 | 112 ft | 16 kts | 239° |
| 2026-05-06 18:05 | 55.94311 | -3.38889 | 114 ft | 13 kts | 320° |
| 2026-05-06 18:05 | 55.94329 | -3.38912 | 116 ft | 0 kts | 326° |
| 2026-05-06 18:05 | 55.94330 | -3.38913 | 116 ft | 0 kts | 326° |
| 2026-05-06 18:05 | 55.94331 | -3.38914 | 116 ft | 0 kts | 327° |
| 2026-05-06 18:06 | 55.94346 | -3.38930 | 113 ft | 12 kts | 330° |
| 2026-05-06 18:06 | 55.94421 | -3.38947 | 113 ft | 0 kts | 60° |
| 2026-05-06 18:06 | 55.94430 | -3.38920 | 114 ft | 16 kts | 58° |
| 2026-05-06 18:07 | 55.94641 | -3.38324 | 113 ft | 93 kts | 59° |
| 2026-05-06 18:07 | 55.95083 | -3.37013 | 114 ft | 150 kts | 59° |
| 2026-05-06 18:07 | 55.95558 | -3.35614 | 239 ft | 174 kts | 58° |
| 2026-05-06 18:07 | 55.96258 | -3.33907 | 905 ft | 173 kts | 42° |
| 2026-05-06 18:08 | 55.97157 | -3.32457 | 1536 ft | 179 kts | 41° |
| 2026-05-06 18:08 | 55.98141 | -3.30873 | 1892 ft | 202 kts | 41° |
| 2026-05-06 18:08 | 55.99241 | -3.29119 | 2270 ft | 221 kts | 39° |
| 2026-05-06 18:08 | 56.00687 | -3.27990 | 2638 ft | 245 kts | 2° |
| 2026-05-06 18:09 | 56.02371 | -3.28784 | 3261 ft | 259 kts | 324° |
| 2026-05-06 18:09 | 56.03466 | -3.31252 | 4116 ft | 264 kts | 289° |
| 2026-05-06 18:09 | 56.03605 | -3.34438 | 5012 ft | 267 kts | 261° |
| 2026-05-06 18:09 | 56.03283 | -3.37116 | 5632 ft | 271 kts | 253° |
| 2026-05-06 18:10 | 56.02700 | -3.40329 | 5906 ft | 272 kts | 251° |
| 2026-05-06 18:10 | 56.02083 | -3.43534 | 6449 ft | 274 kts | 251° |
| 2026-05-06 18:10 | 56.01491 | -3.46781 | 7427 ft | 275 kts | 252° |
| 2026-05-06 18:10 | 56.00937 | -3.50079 | 8329 ft | 279 kts | 254° |
| 2026-05-06 18:11 | 56.00410 | -3.53441 | 9187 ft | 282 kts | 255° |
| 2026-05-06 18:11 | 55.99900 | -3.56860 | 10031 ft | 286 kts | 255° |
| 2026-05-06 18:11 | 55.99387 | -3.60423 | 10444 ft | 308 kts | 256° |
| 2026-05-06 18:11 | 55.98843 | -3.64263 | 10731 ft | 331 kts | 256° |
| 2026-05-06 18:12 | 55.98268 | -3.68314 | 11318 ft | 341 kts | 256° |
| 2026-05-06 18:12 | 55.97686 | -3.72393 | 12037 ft | 346 kts | 256° |
| 2026-05-06 18:12 | 55.97086 | -3.76565 | 12774 ft | 350 kts | 256° |
| 2026-05-06 18:12 | 55.96473 | -3.80806 | 13487 ft | 354 kts | 256° |
| 2026-05-06 18:13 | 55.95850 | -3.85098 | 14188 ft | 358 kts | 255° |
| 2026-05-06 18:13 | 55.95282 | -3.88994 | 14808 ft | 361 kts | 255° |
| 2026-05-06 18:13 | 55.94626 | -3.93476 | 15497 ft | 365 kts | 255° |
| 2026-05-06 18:13 | 55.93922 | -3.97842 | 16139 ft | 369 kts | 249° |
| 2026-05-06 18:14 | 55.92705 | -4.01878 | 16758 ft | 372 kts | 234° |
| 2026-05-06 18:14 | 55.90928 | -4.05248 | 17362 ft | 376 kts | 219° |
| 2026-05-06 18:14 | 55.88779 | -4.07953 | 17959 ft | 379 kts | 214° |
| 2026-05-06 18:14 | 55.86738 | -4.10436 | 18508 ft | 382 kts | 214° |
| 2026-05-06 18:15 | 55.84534 | -4.13124 | 19078 ft | 385 kts | 214° |
| 2026-05-06 18:15 | 55.82317 | -4.15831 | 19636 ft | 388 kts | 214° |
| 2026-05-06 18:15 | 55.80079 | -4.18565 | 20170 ft | 392 kts | 214° |
| 2026-05-06 18:15 | 55.77810 | -4.21301 | 20675 ft | 395 kts | 212° |
| 2026-05-06 18:16 | 55.75331 | -4.23434 | 21161 ft | 399 kts | 199° |
| 2026-05-06 18:16 | 55.72627 | -4.24598 | 21667 ft | 402 kts | 187° |
| 2026-05-06 18:16 | 55.69821 | -4.24741 | 22133 ft | 406 kts | 175° |
| 2026-05-06 18:16 | 55.67033 | -4.23867 | 22585 ft | 409 kts | 164° |
| 2026-05-06 18:17 | 55.64485 | -4.22201 | 23017 ft | 412 kts | 155° |
| 2026-05-06 18:17 | 55.61955 | -4.19804 | 23463 ft | 415 kts | 151° |
| 2026-05-06 18:17 | 55.59419 | -4.17310 | 23908 ft | 418 kts | 151° |
| 2026-05-06 18:17 | 55.56869 | -4.14814 | 24317 ft | 420 kts | 151° |
| 2026-05-06 18:18 | 55.54301 | -4.12309 | 24735 ft | 423 kts | 151° |
| 2026-05-06 18:18 | 55.51714 | -4.09791 | 25146 ft | 426 kts | 151° |
| 2026-05-06 18:18 | 55.49114 | -4.07261 | 25553 ft | 428 kts | 151° |
| 2026-05-06 18:18 | 55.46498 | -4.04712 | 25898 ft | 431 kts | 151° |
| 2026-05-06 18:19 | 55.43860 | -4.02149 | 26277 ft | 434 kts | 151° |
| 2026-05-06 18:19 | 55.41209 | -3.99584 | 26635 ft | 437 kts | 151° |
| 2026-05-06 18:19 | 55.38539 | -3.97006 | 27013 ft | 438 kts | 151° |
| 2026-05-06 18:19 | 55.35858 | -3.94419 | 27393 ft | 440 kts | 151° |
| 2026-05-06 18:20 | 55.33168 | -3.91825 | 27734 ft | 443 kts | 151° |
| 2026-05-06 18:20 | 55.30455 | -3.89210 | 28068 ft | 445 kts | 151° |
| 2026-05-06 18:20 | 55.27781 | -3.86637 | 28390 ft | 448 kts | 151° |
| 2026-05-06 18:20 | 55.25026 | -3.83992 | 28723 ft | 449 kts | 151° |
| 2026-05-06 18:21 | 55.22234 | -3.81508 | 29033 ft | 451 kts | 157° |
| 2026-05-06 18:21 | 55.19271 | -3.79684 | 29317 ft | 453 kts | 163° |
| 2026-05-06 18:21 | 55.16256 | -3.78032 | 29587 ft | 455 kts | 163° |
| 2026-05-06 18:21 | 55.13228 | -3.76374 | 29882 ft | 457 kts | 163° |
| 2026-05-06 18:22 | 55.10181 | -3.74708 | 30163 ft | 459 kts | 163° |
| 2026-05-06 18:22 | 55.07130 | -3.73037 | 30443 ft | 460 kts | 163° |
| 2026-05-06 18:22 | 55.04067 | -3.71361 | 30722 ft | 462 kts | 163° |
| 2026-05-06 18:22 | 55.02038 | -3.70254 | 30966 ft | 461 kts | 163° |
| 2026-05-06 18:23 | 54.98978 | -3.68587 | 31337 ft | 460 kts | 163° |
| 2026-05-06 18:23 | 54.95927 | -3.66931 | 31696 ft | 459 kts | 163° |
| 2026-05-06 18:23 | 54.92873 | -3.65281 | 32013 ft | 460 kts | 163° |
| 2026-05-06 18:23 | 54.89817 | -3.63633 | 32346 ft | 459 kts | 163° |
| 2026-05-06 18:24 | 54.85786 | -3.61457 | 32862 ft | 457 kts | 163° |
| 2026-05-06 18:24 | 54.83777 | -3.60371 | 33097 ft | 456 kts | 163° |
| 2026-05-06 18:24 | 54.80743 | -3.58731 | 33440 ft | 455 kts | 163° |
| 2026-05-06 18:24 | 54.77724 | -3.57098 | 33774 ft | 454 kts | 163° |
| 2026-05-06 18:25 | 54.74749 | -3.55495 | 34100 ft | 454 kts | 163° |
| 2026-05-06 18:25 | 54.71738 | -3.53876 | 34428 ft | 453 kts | 163° |
| 2026-05-06 18:25 | 54.68726 | -3.52256 | 34749 ft | 452 kts | 163° |
| 2026-05-06 18:25 | 54.65721 | -3.50645 | 35045 ft | 452 kts | 163° |
| 2026-05-06 18:26 | 54.62719 | -3.49041 | 35332 ft | 451 kts | 163° |
| 2026-05-06 18:26 | 54.59717 | -3.47444 | 35607 ft | 451 kts | 163° |
| 2026-05-06 18:26 | 54.56717 | -3.45845 | 35864 ft | 451 kts | 163° |
| 2026-05-06 18:26 | 54.53721 | -3.44252 | 36120 ft | 450 kts | 163° |
| 2026-05-06 18:27 | 54.50729 | -3.42667 | 36369 ft | 450 kts | 163° |
| 2026-05-06 18:27 | 54.47727 | -3.41079 | 36577 ft | 451 kts | 163° |
| 2026-05-06 18:27 | 54.44728 | -3.39493 | 36802 ft | 451 kts | 163° |
| 2026-05-06 18:27 | 54.41731 | -3.37908 | 36970 ft | 451 kts | 163° |
| 2026-05-06 18:28 | 54.35743 | -3.34747 | 37009 ft | 450 kts | 163° |
| 2026-05-06 18:28 | 54.29778 | -3.31617 | 37009 ft | 451 kts | 163° |
| 2026-05-06 18:29 | 54.23815 | -3.28485 | 37009 ft | 451 kts | 163° |
| 2026-05-06 18:29 | 54.17785 | -3.25607 | 37009 ft | 449 kts | 171° |
| 2026-05-06 18:30 | 54.11570 | -3.24532 | 37011 ft | 449 kts | 175° |
| 2026-05-06 18:30 | 54.05347 | -3.23562 | 37011 ft | 449 kts | 175° |
| 2026-05-06 18:31 | 53.99139 | -3.22383 | 37011 ft | 449 kts | 168° |
| 2026-05-06 18:31 | 53.93082 | -3.20082 | 37010 ft | 449 kts | 167° |
| 2026-05-06 18:32 | 53.87043 | -3.17772 | 37010 ft | 449 kts | 167° |
| 2026-05-06 18:32 | 53.80943 | -3.15459 | 37009 ft | 449 kts | 167° |
| 2026-05-06 18:33 | 53.75299 | -3.13336 | 37009 ft | 449 kts | 168° |
| 2026-05-06 18:33 | 53.69264 | -3.11084 | 37010 ft | 449 kts | 168° |
| 2026-05-06 18:34 | 53.63151 | -3.08793 | 37010 ft | 449 kts | 168° |
| 2026-05-06 18:34 | 53.57041 | -3.06512 | 37009 ft | 449 kts | 168° |
| 2026-05-06 18:35 | 53.50941 | -3.04235 | 37009 ft | 449 kts | 167° |
| 2026-05-06 18:35 | 53.44833 | -3.01960 | 37011 ft | 450 kts | 168° |
| 2026-05-06 18:36 | 53.38794 | -2.99727 | 37013 ft | 450 kts | 168° |
| 2026-05-06 18:36 | 53.32679 | -2.97468 | 37014 ft | 450 kts | 168° |
| 2026-05-06 18:37 | 53.26562 | -2.95202 | 37016 ft | 450 kts | 168° |
| 2026-05-06 18:37 | 53.20482 | -2.92959 | 37016 ft | 450 kts | 168° |
| 2026-05-06 18:38 | 53.14361 | -2.90723 | 37018 ft | 450 kts | 168° |
| 2026-05-06 18:38 | 53.08225 | -2.88678 | 37017 ft | 450 kts | 174° |
| 2026-05-06 18:39 | 53.01982 | -2.88770 | 37017 ft | 449 kts | 183° |
| 2026-05-06 18:40 | 52.92618 | -2.89572 | 37016 ft | 449 kts | 183° |
| 2026-05-06 18:40 | 52.86392 | -2.90548 | 37016 ft | 449 kts | 188° |
| 2026-05-06 18:41 | 52.80201 | -2.92020 | 37017 ft | 450 kts | 188° |
| 2026-05-06 18:41 | 52.74000 | -2.93462 | 37019 ft | 450 kts | 188° |
| 2026-05-06 18:42 | 52.67893 | -2.94390 | 37019 ft | 450 kts | 183° |
| 2026-05-06 18:42 | 52.61638 | -2.94904 | 37020 ft | 450 kts | 183° |
| 2026-05-06 18:43 | 52.55375 | -2.95414 | 37014 ft | 451 kts | 183° |
| 2026-05-06 18:43 | 52.49111 | -2.95934 | 37016 ft | 451 kts | 183° |
| 2026-05-06 18:44 | 52.42844 | -2.96469 | 37017 ft | 451 kts | 183° |
| 2026-05-06 18:44 | 52.36571 | -2.96990 | 37016 ft | 451 kts | 183° |
| 2026-05-06 18:45 | 52.30304 | -2.97487 | 37015 ft | 451 kts | 183° |
| 2026-05-06 18:45 | 52.24046 | -2.97989 | 37015 ft | 450 kts | 183° |
| 2026-05-06 18:46 | 52.17785 | -2.98505 | 37016 ft | 450 kts | 183° |
| 2026-05-06 18:46 | 52.11573 | -2.99020 | 37018 ft | 450 kts | 183° |
| 2026-05-06 18:47 | 52.05310 | -2.99534 | 37016 ft | 450 kts | 183° |
| 2026-05-06 18:47 | 51.99046 | -3.00028 | 37012 ft | 450 kts | 183° |
| 2026-05-06 18:48 | 51.92788 | -3.00534 | 37010 ft | 450 kts | 183° |
| 2026-05-06 18:48 | 51.86528 | -3.01098 | 37010 ft | 450 kts | 185° |
| 2026-05-06 18:49 | 51.80326 | -3.02254 | 37015 ft | 450 kts | 188° |
| 2026-05-06 18:49 | 51.74127 | -3.03743 | 37013 ft | 450 kts | 188° |
| 2026-05-06 18:50 | 51.67916 | -3.05150 | 37013 ft | 450 kts | 188° |
| 2026-05-06 18:50 | 51.61700 | -3.06431 | 37014 ft | 450 kts | 187° |
| 2026-05-06 18:51 | 51.55528 | -3.07676 | 37017 ft | 450 kts | 187° |
| 2026-05-06 18:51 | 51.49314 | -3.08953 | 37019 ft | 449 kts | 187° |
| 2026-05-06 18:52 | 51.43098 | -3.10233 | 37019 ft | 449 kts | 187° |
| 2026-05-06 18:52 | 51.36898 | -3.11511 | 37018 ft | 449 kts | 187° |
| 2026-05-06 18:53 | 51.30697 | -3.12791 | 37018 ft | 449 kts | 187° |
| 2026-05-06 18:53 | 51.24499 | -3.14063 | 37015 ft | 449 kts | 187° |
| 2026-05-06 18:54 | 51.18340 | -3.15309 | 37015 ft | 449 kts | 187° |
| 2026-05-06 18:54 | 51.12103 | -3.16568 | 37012 ft | 449 kts | 187° |
| 2026-05-06 18:55 | 51.05903 | -3.17829 | 37007 ft | 449 kts | 187° |
| 2026-05-06 18:55 | 50.99705 | -3.19089 | 37010 ft | 449 kts | 187° |
| 2026-05-06 18:56 | 50.93543 | -3.20326 | 37008 ft | 449 kts | 187° |
| 2026-05-06 18:56 | 50.87401 | -3.21560 | 37009 ft | 450 kts | 187° |
| 2026-05-06 18:57 | 50.81186 | -3.22809 | 37010 ft | 450 kts | 187° |
| 2026-05-06 18:57 | 50.74967 | -3.24041 | 37014 ft | 450 kts | 187° |
| 2026-05-06 18:58 | 50.68754 | -3.25278 | 37014 ft | 450 kts | 187° |
| 2026-05-06 18:58 | 50.62550 | -3.26521 | 37018 ft | 450 kts | 187° |
| 2026-05-06 18:59 | 50.56437 | -3.27730 | 37020 ft | 450 kts | 187° |
| 2026-05-06 18:59 | 50.50270 | -3.28950 | 37021 ft | 450 kts | 187° |
| 2026-05-06 19:00 | 50.44063 | -3.30176 | 37022 ft | 449 kts | 187° |
| 2026-05-06 19:00 | 50.37867 | -3.31488 | 37020 ft | 449 kts | 192° |
| 2026-05-06 19:01 | 50.31761 | -3.33569 | 37021 ft | 449 kts | 192° |
| 2026-05-06 19:01 | 50.25649 | -3.35638 | 37020 ft | 449 kts | 192° |
| 2026-05-06 19:02 | 50.19542 | -3.37693 | 37018 ft | 449 kts | 192° |
| 2026-05-06 19:02 | 50.13439 | -3.39739 | 37017 ft | 449 kts | 192° |
| 2026-05-06 19:03 | 50.07322 | -3.41785 | 37018 ft | 449 kts | 192° |
| 2026-05-06 19:03 | 50.01257 | -3.43816 | 37017 ft | 449 kts | 192° |
| 2026-05-06 19:04 | 49.95150 | -3.45851 | 37016 ft | 449 kts | 192° |
| 2026-05-06 19:04 | 49.89043 | -3.47887 | 37013 ft | 448 kts | 192° |
| 2026-05-06 19:05 | 49.82928 | -3.49919 | 37013 ft | 449 kts | 192° |
| 2026-05-06 19:05 | 49.76822 | -3.51939 | 37013 ft | 449 kts | 192° |
| 2026-05-06 19:06 | 49.70817 | -3.53240 | 37012 ft | 449 kts | 184° |
| 2026-05-06 19:06 | 49.64615 | -3.53800 | 37012 ft | 449 kts | 184° |
| 2026-05-06 19:07 | 49.58374 | -3.54380 | 37010 ft | 449 kts | 184° |
| 2026-05-06 19:07 | 49.52146 | -3.54971 | 37009 ft | 448 kts | 184° |
| 2026-05-06 19:08 | 49.45912 | -3.55548 | 37009 ft | 449 kts | 184° |
| 2026-05-06 19:08 | 49.39677 | -3.56121 | 37010 ft | 449 kts | 184° |
| 2026-05-06 19:09 | 49.33437 | -3.56696 | 37011 ft | 449 kts | 184° |
| 2026-05-06 19:09 | 49.27205 | -3.57276 | 37013 ft | 449 kts | 184° |
| 2026-05-06 19:10 | 49.20963 | -3.57847 | 37015 ft | 449 kts | 184° |
| 2026-05-06 19:10 | 49.14753 | -3.58424 | 37016 ft | 449 kts | 184° |
| 2026-05-06 19:11 | 49.08560 | -3.58998 | 37015 ft | 449 kts | 184° |
| 2026-05-06 19:11 | 49.02329 | -3.59556 | 37013 ft | 449 kts | 184° |
| 2026-05-06 19:12 | 48.96081 | -3.60120 | 37015 ft | 449 kts | 184° |
| 2026-05-06 19:12 | 48.89884 | -3.60691 | 37016 ft | 449 kts | 184° |
| 2026-05-06 19:13 | 48.83597 | -3.61264 | 37017 ft | 449 kts | 184° |
| 2026-05-06 19:13 | 48.77415 | -3.61823 | 37018 ft | 449 kts | 184° |
| 2026-05-06 19:14 | 48.72170 | -3.62294 | 37018 ft | 449 kts | 184° |
| 2026-05-06 19:14 | 48.65935 | -3.62850 | 37016 ft | 449 kts | 184° |
| 2026-05-06 19:15 | 48.58703 | -3.63494 | 37013 ft | 449 kts | 184° |
| 2026-05-06 19:15 | 48.52458 | -3.64057 | 37012 ft | 450 kts | 184° |
| 2026-05-06 19:16 | 48.47222 | -3.64535 | 37012 ft | 450 kts | 184° |
| 2026-05-06 19:16 | 48.41016 | -3.65102 | 37014 ft | 451 kts | 184° |
| 2026-05-06 19:17 | 48.34797 | -3.65641 | 37017 ft | 450 kts | 183° |
| 2026-05-06 19:17 | 48.28542 | -3.66180 | 37017 ft | 450 kts | 184° |
| 2026-05-06 19:18 | 48.22287 | -3.66737 | 37018 ft | 450 kts | 184° |
| 2026-05-06 19:18 | 48.16031 | -3.67291 | 37017 ft | 450 kts | 184° |
| 2026-05-06 19:19 | 48.09777 | -3.67843 | 37016 ft | 450 kts | 184° |
| 2026-05-06 19:19 | 48.03518 | -3.68398 | 37014 ft | 450 kts | 184° |
| 2026-05-06 19:20 | 47.97264 | -3.68941 | 37013 ft | 450 kts | 184° |
| 2026-05-06 19:20 | 47.91055 | -3.69486 | 37013 ft | 449 kts | 184° |
| 2026-05-06 19:21 | 47.84808 | -3.70031 | 37012 ft | 449 kts | 184° |
| 2026-05-06 19:21 | 47.78778 | -3.70554 | 37010 ft | 449 kts | 184° |
| 2026-05-06 19:22 | 47.72618 | -3.71092 | 37009 ft | 448 kts | 184° |
| 2026-05-06 19:22 | 47.66317 | -3.71637 | 37007 ft | 448 kts | 184° |
| 2026-05-06 19:23 | 47.60087 | -3.72176 | 37006 ft | 448 kts | 184° |
| 2026-05-06 19:23 | 47.53848 | -3.72709 | 37006 ft | 448 kts | 184° |
| 2026-05-06 19:24 | 47.47658 | -3.73247 | 37007 ft | 449 kts | 184° |
| 2026-05-06 19:24 | 47.41422 | -3.73786 | 37008 ft | 449 kts | 184° |
| 2026-05-06 19:25 | 47.35190 | -3.74311 | 37009 ft | 449 kts | 184° |
| 2026-05-06 19:25 | 47.28949 | -3.74840 | 37011 ft | 449 kts | 184° |
| 2026-05-06 19:26 | 47.22706 | -3.75376 | 37011 ft | 449 kts | 184° |
| 2026-05-06 19:26 | 47.16473 | -3.75908 | 37011 ft | 449 kts | 184° |
| 2026-05-06 19:27 | 47.10280 | -3.76427 | 37011 ft | 449 kts | 184° |
| 2026-05-06 19:27 | 47.04042 | -3.76949 | 37012 ft | 449 kts | 184° |
| 2026-05-06 19:28 | 46.97803 | -3.77473 | 37012 ft | 449 kts | 184° |
| 2026-05-06 19:28 | 46.91561 | -3.78002 | 37012 ft | 449 kts | 184° |
| 2026-05-06 19:29 | 46.85373 | -3.78520 | 37012 ft | 449 kts | 183° |
| 2026-05-06 19:29 | 46.79137 | -3.79036 | 37012 ft | 449 kts | 184° |
| 2026-05-06 19:30 | 46.72902 | -3.79571 | 37011 ft | 449 kts | 184° |
| 2026-05-06 19:30 | 46.66671 | -3.80096 | 37010 ft | 449 kts | 183° |
| 2026-05-06 19:31 | 46.60432 | -3.80617 | 37009 ft | 449 kts | 184° |
| 2026-05-06 19:31 | 46.51086 | -3.81378 | 37008 ft | 448 kts | 183° |
| 2026-05-06 19:32 | 46.44852 | -3.81887 | 37006 ft | 448 kts | 184° |
| 2026-05-06 19:32 | 46.38666 | -3.82404 | 37005 ft | 448 kts | 184° |
| 2026-05-06 19:33 | 46.32439 | -3.82919 | 37004 ft | 448 kts | 184° |
| 2026-05-06 19:33 | 46.26205 | -3.83430 | 37003 ft | 448 kts | 183° |
| 2026-05-06 19:34 | 46.19982 | -3.83939 | 37002 ft | 448 kts | 183° |
| 2026-05-06 19:34 | 46.13756 | -3.84448 | 37001 ft | 448 kts | 183° |
| 2026-05-06 19:35 | 46.07529 | -3.84953 | 37000 ft | 448 kts | 183° |
| 2026-05-06 19:35 | 46.01298 | -3.85459 | 36999 ft | 448 kts | 184° |
| 2026-05-06 19:36 | 45.95115 | -3.85967 | 36998 ft | 448 kts | 183° |
| 2026-05-06 19:36 | 45.88882 | -3.86471 | 36998 ft | 448 kts | 184° |
| 2026-05-06 19:37 | 45.82660 | -3.86980 | 36998 ft | 448 kts | 183° |
| 2026-05-06 19:37 | 45.76440 | -3.87474 | 36998 ft | 448 kts | 183° |
| 2026-05-06 19:38 | 45.70215 | -3.87977 | 36998 ft | 448 kts | 184° |
| 2026-05-06 19:38 | 45.64015 | -3.88481 | 36999 ft | 448 kts | 183° |
| 2026-05-06 19:39 | 45.57763 | -3.88983 | 36999 ft | 448 kts | 184° |
| 2026-05-06 19:39 | 45.51534 | -3.89486 | 37000 ft | 448 kts | 183° |
| 2026-05-06 19:40 | 45.45350 | -3.89974 | 37001 ft | 448 kts | 183° |
| 2026-05-06 19:40 | 45.39119 | -3.90459 | 37002 ft | 448 kts | 183° |
| 2026-05-06 19:41 | 45.32927 | -3.90952 | 37003 ft | 448 kts | 183° |
| 2026-05-06 19:41 | 45.26695 | -3.91449 | 37004 ft | 448 kts | 183° |
| 2026-05-06 19:42 | 45.20463 | -3.91952 | 37005 ft | 448 kts | 184° |
| 2026-05-06 19:42 | 45.14228 | -3.92448 | 37006 ft | 449 kts | 183° |
| 2026-05-06 19:43 | 45.07993 | -3.92928 | 37007 ft | 449 kts | 183° |
| 2026-05-06 19:43 | 45.01757 | -3.93411 | 37008 ft | 449 kts | 183° |
| 2026-05-06 19:44 | 44.95749 | -3.93880 | 37009 ft | 449 kts | 183° |
| 2026-05-06 19:44 | 44.89471 | -3.94363 | 37010 ft | 449 kts | 183° |
| 2026-05-06 19:45 | 44.83273 | -3.94846 | 37011 ft | 449 kts | 183° |
| 2026-05-06 19:45 | 44.77037 | -3.95337 | 37012 ft | 449 kts | 183° |
| 2026-05-06 19:46 | 44.70800 | -3.95831 | 37011 ft | 449 kts | 183° |
| 2026-05-06 19:46 | 44.64561 | -3.96314 | 37011 ft | 449 kts | 183° |
| 2026-05-06 19:47 | 44.58321 | -3.96795 | 37012 ft | 449 kts | 183° |
| 2026-05-06 19:47 | 44.52078 | -3.97276 | 37014 ft | 449 kts | 183° |
| 2026-05-06 19:48 | 44.45835 | -3.97745 | 37016 ft | 449 kts | 183° |
| 2026-05-06 19:48 | 44.39587 | -3.98225 | 37019 ft | 450 kts | 183° |
| 2026-05-06 19:49 | 44.33389 | -3.98687 | 37020 ft | 450 kts | 181° |
| 2026-05-06 19:49 | 44.27179 | -3.98195 | 37022 ft | 450 kts | 176° |
| 2026-05-06 19:50 | 44.20932 | -3.97580 | 37023 ft | 450 kts | 176° |
| 2026-05-06 19:50 | 44.14682 | -3.96971 | 37023 ft | 450 kts | 176° |
| 2026-05-06 19:51 | 44.08436 | -3.96363 | 37023 ft | 450 kts | 176° |
| 2026-05-06 19:51 | 44.02189 | -3.95752 | 37023 ft | 450 kts | 176° |
| 2026-05-06 19:52 | 43.95941 | -3.95145 | 37022 ft | 450 kts | 176° |
| 2026-05-06 19:52 | 43.89702 | -3.94538 | 37020 ft | 449 kts | 176° |
| 2026-05-06 19:53 | 43.83505 | -3.93931 | 37017 ft | 449 kts | 176° |
| 2026-05-06 19:53 | 43.77268 | -3.93329 | 37016 ft | 449 kts | 176° |
| 2026-05-06 19:54 | 43.71032 | -3.92733 | 37016 ft | 449 kts | 176° |
| 2026-05-06 19:54 | 43.64789 | -3.92135 | 37017 ft | 449 kts | 176° |
| 2026-05-06 19:55 | 43.58552 | -3.91537 | 37016 ft | 449 kts | 176° |
| 2026-05-06 19:55 | 43.52313 | -3.90943 | 37014 ft | 449 kts | 176° |
| 2026-05-06 19:56 | 43.46088 | -3.90361 | 37012 ft | 449 kts | 179° |
| 2026-05-06 19:56 | 43.39866 | -3.90984 | 37008 ft | 448 kts | 186° |
| 2026-05-06 19:57 | 43.33655 | -3.91926 | 37005 ft | 449 kts | 186° |
| 2026-05-06 19:57 | 43.27446 | -3.92850 | 37002 ft | 449 kts | 186° |
| 2026-05-06 19:58 | 43.21231 | -3.93768 | 37003 ft | 449 kts | 186° |
| 2026-05-06 19:58 | 43.15010 | -3.94677 | 36992 ft | 450 kts | 186° |
| 2026-05-06 19:59 | 43.08958 | -3.95488 | 38801 ft | 390 kts | 184° |
| 2026-05-06 19:59 | 43.06162 | -3.95757 | 38070 ft | 421 kts | 185° |
| 2026-05-06 19:59 | 43.03158 | -3.96170 | 37141 ft | 452 kts | 187° |
| 2026-05-06 20:00 | 43.00007 | -3.96705 | 36977 ft | 456 kts | 187° |
| 2026-05-06 20:00 | 42.96870 | -3.97264 | 36632 ft | 453 kts | 187° |
| 2026-05-06 20:00 | 42.93568 | -3.97861 | 34213 ft | 499 kts | 188° |
| 2026-05-06 20:00 | 42.90417 | -3.98468 | 34810 ft | 470 kts | 188° |
| 2026-05-06 20:01 | 42.87196 | -3.99048 | 35368 ft | 466 kts | 187° |
| 2026-05-06 20:01 | 42.83984 | -3.99499 | 35369 ft | 460 kts | 185° |
| 2026-05-06 20:01 | 42.80802 | -3.99865 | 35494 ft | 459 kts | 185° |
| 2026-05-06 20:01 | 42.77622 | -4.00216 | 35919 ft | 456 kts | 185° |
| 2026-05-06 20:02 | 42.74468 | -4.00592 | 36242 ft | 455 kts | 185° |
| 2026-05-06 20:02 | 42.71316 | -4.01014 | 36526 ft | 455 kts | 186° |
| 2026-05-06 20:02 | 42.68235 | -4.01460 | 36795 ft | 455 kts | 186° |
| 2026-05-06 20:02 | 42.65049 | -4.01938 | 36972 ft | 456 kts | 186° |
| 2026-05-06 20:03 | 42.58793 | -4.02881 | 37009 ft | 455 kts | 186° |
| 2026-05-06 20:03 | 42.52498 | -4.03799 | 37009 ft | 454 kts | 186° |
| 2026-05-06 20:04 | 42.46209 | -4.04705 | 37009 ft | 454 kts | 186° |
| 2026-05-06 20:04 | 42.39923 | -4.05603 | 37009 ft | 454 kts | 186° |
| 2026-05-06 20:05 | 42.33641 | -4.06497 | 37010 ft | 454 kts | 186° |
| 2026-05-06 20:05 | 42.27400 | -4.07397 | 37008 ft | 454 kts | 186° |
| 2026-05-06 20:06 | 42.21111 | -4.08314 | 37010 ft | 455 kts | 186° |
| 2026-05-06 20:06 | 42.14943 | -4.09192 | 37015 ft | 455 kts | 186° |
| 2026-05-06 20:07 | 42.08642 | -4.10087 | 37017 ft | 454 kts | 186° |
| 2026-05-06 20:07 | 42.03415 | -4.10827 | 37017 ft | 454 kts | 186° |
| 2026-05-06 20:08 | 41.97118 | -4.11629 | 37017 ft | 455 kts | 185° |
| 2026-05-06 20:08 | 41.90805 | -4.12312 | 37018 ft | 455 kts | 185° |
| 2026-05-06 20:09 | 41.84491 | -4.12988 | 37018 ft | 455 kts | 185° |
| 2026-05-06 20:09 | 41.78168 | -4.13712 | 37018 ft | 455 kts | 185° |
| 2026-05-06 20:10 | 41.71857 | -4.14439 | 37018 ft | 455 kts | 185° |
| 2026-05-06 20:10 | 41.65596 | -4.15150 | 37019 ft | 455 kts | 185° |
| 2026-05-06 20:11 | 41.59295 | -4.15856 | 37020 ft | 454 kts | 185° |
| 2026-05-06 20:11 | 41.53010 | -4.16563 | 37017 ft | 454 kts | 185° |
| 2026-05-06 20:12 | 41.46713 | -4.17274 | 37015 ft | 454 kts | 185° |
| 2026-05-06 20:12 | 41.40415 | -4.17979 | 36789 ft | 453 kts | 185° |
| 2026-05-06 20:13 | 41.37328 | -4.18322 | 36114 ft | 453 kts | 185° |
| 2026-05-06 20:13 | 41.34189 | -4.18671 | 35394 ft | 453 kts | 185° |
| 2026-05-06 20:13 | 41.31046 | -4.19024 | 34628 ft | 454 kts | 185° |
| 2026-05-06 20:13 | 41.27894 | -4.19378 | 33836 ft | 455 kts | 185° |
| 2026-05-06 20:14 | 41.24725 | -4.19715 | 33000 ft | 457 kts | 184° |
| 2026-05-06 20:14 | 41.21546 | -4.19969 | 32139 ft | 459 kts | 183° |
| 2026-05-06 20:14 | 41.18357 | -4.20156 | 31367 ft | 458 kts | 182° |
| 2026-05-06 20:14 | 41.15188 | -4.20306 | 30739 ft | 453 kts | 182° |
| 2026-05-06 20:15 | 41.12086 | -4.20448 | 30117 ft | 449 kts | 182° |
| 2026-05-06 20:15 | 41.08981 | -4.20601 | 29485 ft | 445 kts | 182° |
| 2026-05-06 20:15 | 41.05906 | -4.20769 | 28874 ft | 440 kts | 182° |
| 2026-05-06 20:15 | 41.02855 | -4.20950 | 28261 ft | 436 kts | 183° |
| 2026-05-06 20:16 | 40.99832 | -4.21141 | 27660 ft | 432 kts | 183° |
| 2026-05-06 20:16 | 40.96842 | -4.21334 | 27061 ft | 428 kts | 183° |
| 2026-05-06 20:16 | 40.93943 | -4.21517 | 26471 ft | 424 kts | 183° |
| 2026-05-06 20:16 | 40.91125 | -4.21689 | 25891 ft | 421 kts | 183° |
| 2026-05-06 20:17 | 40.88213 | -4.21865 | 25284 ft | 417 kts | 183° |
| 2026-05-06 20:17 | 40.85331 | -4.22037 | 24679 ft | 413 kts | 183° |
| 2026-05-06 20:17 | 40.82469 | -4.22206 | 24077 ft | 409 kts | 183° |
| 2026-05-06 20:17 | 40.79674 | -4.22376 | 23479 ft | 406 kts | 183° |
| 2026-05-06 20:18 | 40.76867 | -4.22546 | 22893 ft | 403 kts | 183° |
| 2026-05-06 20:18 | 40.74078 | -4.22719 | 22329 ft | 399 kts | 183° |
| 2026-05-06 20:18 | 40.71312 | -4.22888 | 21778 ft | 396 kts | 183° |
| 2026-05-06 20:18 | 40.68572 | -4.23053 | 21206 ft | 393 kts | 183° |
| 2026-05-06 20:19 | 40.65887 | -4.23212 | 20641 ft | 391 kts | 183° |
| 2026-05-06 20:19 | 40.63177 | -4.23375 | 20108 ft | 388 kts | 183° |
| 2026-05-06 20:19 | 40.60494 | -4.23538 | 19609 ft | 384 kts | 183° |
| 2026-05-06 20:19 | 40.57834 | -4.23697 | 19110 ft | 381 kts | 183° |
| 2026-05-06 20:20 | 40.55197 | -4.23848 | 18614 ft | 378 kts | 182° |
| 2026-05-06 20:20 | 40.52591 | -4.23628 | 18116 ft | 375 kts | 171° |
| 2026-05-06 20:20 | 40.50080 | -4.22758 | 17640 ft | 372 kts | 160° |
| 2026-05-06 20:20 | 40.47683 | -4.21526 | 17142 ft | 369 kts | 159° |
| 2026-05-06 20:21 | 40.45298 | -4.20301 | 16673 ft | 366 kts | 159° |
| 2026-05-06 20:21 | 40.42935 | -4.19092 | 16207 ft | 363 kts | 159° |
| 2026-05-06 20:21 | 40.40676 | -4.17815 | 16353 ft | 339 kts | 154° |
| 2026-05-06 20:21 | 40.38547 | -4.16381 | 15492 ft | 350 kts | 154° |
| 2026-05-06 20:22 | 40.36402 | -4.14826 | 14855 ft | 354 kts | 146° |
| 2026-05-06 20:22 | 40.34529 | -4.12750 | 14364 ft | 352 kts | 131° |
| 2026-05-06 20:22 | 40.33177 | -4.10102 | 13886 ft | 350 kts | 115° |
| 2026-05-06 20:22 | 40.32371 | -4.07157 | 13398 ft | 348 kts | 107° |
| 2026-05-06 20:23 | 40.31647 | -4.04142 | 12910 ft | 346 kts | 108° |
| 2026-05-06 20:23 | 40.30917 | -4.01147 | 12422 ft | 344 kts | 108° |
| 2026-05-06 20:23 | 40.30182 | -3.98181 | 11940 ft | 341 kts | 108° |
| 2026-05-06 20:23 | 40.29445 | -3.95239 | 11458 ft | 339 kts | 108° |
| 2026-05-06 20:24 | 40.28706 | -3.92322 | 10974 ft | 336 kts | 108° |
| 2026-05-06 20:24 | 40.27971 | -3.89425 | 10496 ft | 334 kts | 108° |
| 2026-05-06 20:24 | 40.27243 | -3.86548 | 10030 ft | 331 kts | 108° |
| 2026-05-06 20:24 | 40.26534 | -3.83742 | 9880 ft | 318 kts | 108° |
| 2026-05-06 20:25 | 40.25852 | -3.81044 | 9764 ft | 306 kts | 108° |
| 2026-05-06 20:25 | 40.25194 | -3.78452 | 9604 ft | 294 kts | 108° |
| 2026-05-06 20:25 | 40.24558 | -3.75949 | 9044 ft | 287 kts | 108° |
| 2026-05-06 20:25 | 40.23936 | -3.73502 | 8394 ft | 284 kts | 108° |
| 2026-05-06 20:26 | 40.23314 | -3.71062 | 7730 ft | 282 kts | 108° |
| 2026-05-06 20:26 | 40.22692 | -3.68622 | 7306 ft | 282 kts | 108° |
| 2026-05-06 20:26 | 40.22077 | -3.66199 | 6920 ft | 279 kts | 108° |
| 2026-05-06 20:26 | 40.21466 | -3.63795 | 6520 ft | 278 kts | 108° |
| 2026-05-06 20:27 | 40.20865 | -3.61438 | 6156 ft | 276 kts | 108° |
| 2026-05-06 20:27 | 40.20263 | -3.59073 | 6089 ft | 270 kts | 108° |
| 2026-05-06 20:27 | 40.19700 | -3.56860 | 6090 ft | 242 kts | 108° |
| 2026-05-06 20:27 | 40.19191 | -3.54864 | 6094 ft | 225 kts | 109° |
| 2026-05-06 20:28 | 40.18699 | -3.52944 | 6203 ft | 213 kts | 109° |
| 2026-05-06 20:28 | 40.18210 | -3.51043 | 6190 ft | 223 kts | 108° |
| 2026-05-06 20:28 | 40.18009 | -3.49059 | 6112 ft | 221 kts | 80° |
| 2026-05-06 20:28 | 40.18442 | -3.47146 | 5814 ft | 220 kts | 68° |
| 2026-05-06 20:29 | 40.19032 | -3.45328 | 5672 ft | 213 kts | 59° |
| 2026-05-06 20:29 | 40.20044 | -3.43993 | 5558 ft | 206 kts | 33° |
| 2026-05-06 20:29 | 40.21258 | -3.43053 | 5408 ft | 200 kts | 26° |
| 2026-05-06 20:29 | 40.22528 | -3.42359 | 5256 ft | 197 kts | 21° |
| 2026-05-06 20:30 | 40.23794 | -3.41665 | 5048 ft | 197 kts | 22° |
| 2026-05-06 20:30 | 40.26311 | -3.40293 | 4652 ft | 195 kts | 13° |
| 2026-05-06 20:30 | 40.27623 | -3.40014 | 4439 ft | 192 kts | 5° |
| 2026-05-06 20:31 | 40.28951 | -3.39857 | 4141 ft | 191 kts | 4° |
| 2026-05-06 20:31 | 40.30276 | -3.39740 | 4098 ft | 192 kts | 358° |
| 2026-05-06 20:31 | 40.31598 | -3.39964 | 4097 ft | 192 kts | 345° |
| 2026-05-06 20:31 | 40.32813 | -3.40673 | 4097 ft | 191 kts | 330° |
| 2026-05-06 20:32 | 40.33948 | -3.41554 | 4100 ft | 183 kts | 328° |
| 2026-05-06 20:32 | 40.34984 | -3.42448 | 4092 ft | 175 kts | 326° |
| 2026-05-06 20:32 | 40.36016 | -3.43255 | 3989 ft | 172 kts | 331° |
| 2026-05-06 20:32 | 40.37064 | -3.43977 | 3987 ft | 170 kts | 332° |
| 2026-05-06 20:33 | 40.38102 | -3.44721 | 3925 ft | 170 kts | 330° |
| 2026-05-06 20:33 | 40.39099 | -3.45475 | 3742 ft | 169 kts | 328° |
| 2026-05-06 20:33 | 40.40093 | -3.46371 | 3567 ft | 169 kts | 324° |
| 2026-05-06 20:33 | 40.41035 | -3.47278 | 3388 ft | 169 kts | 323° |
| 2026-05-06 20:34 | 40.41953 | -3.48185 | 3027 ft | 167 kts | 322° |
| 2026-05-06 20:34 | 40.42876 | -3.49100 | 2816 ft | 166 kts | 322° |
| 2026-05-06 20:34 | 40.43798 | -3.50013 | 2677 ft | 166 kts | 322° |
| 2026-05-06 20:34 | 40.44713 | -3.50946 | 2509 ft | 166 kts | 321° |
| 2026-05-06 20:35 | 40.45621 | -3.51883 | 2312 ft | 166 kts | 321° |
| 2026-05-06 20:35 | 40.46528 | -3.52808 | 2131 ft | 165 kts | 321° |
| 2026-05-06 20:35 | 40.47441 | -3.53721 | 1945 ft | 163 kts | 323° |
| 2026-05-06 20:35 | 40.48330 | -3.54599 | 1935 ft | 150 kts | 320° |
| 2026-05-06 20:36 | 40.48967 | -3.55257 | 1952 ft | 73 kts | 323° |
| 2026-05-06 20:36 | 40.49191 | -3.55535 | 1958 ft | 41 kts | 300° |
| 2026-05-06 20:36 | 40.49288 | -3.55852 | 1962 ft | 30 kts | 290° |
| 2026-05-06 20:36 | 40.49297 | -3.56063 | 1959 ft | 20 kts | 273° |
| 2026-05-06 20:37 | 40.49208 | -3.56141 | 1959 ft | 25 kts | 182° |
| 2026-05-06 20:37 | 40.48976 | -3.56137 | 1959 ft | 31 kts | 179° |
| 2026-05-06 20:37 | 40.48783 | -3.56156 | 1962 ft | 11 kts | 219° |
| 2026-05-06 20:37 | 40.48768 | -3.56237 | 1962 ft | 8 kts | 268° |
| 2026-05-06 20:38 | 40.48769 | -3.56326 | 1964 ft | 9 kts | 270° |
| 2026-05-06 20:38 | 40.48767 | -3.56396 | 1966 ft | 11 kts | 268° |
| 2026-05-06 20:38 | 40.48766 | -3.56652 | 1977 ft | 45 kts | 268° |
| 2026-05-06 20:38 | 40.48764 | -3.57075 | 1981 ft | 45 kts | 270° |
| 2026-05-06 20:39 | 40.48764 | -3.57468 | 1989 ft | 41 kts | 270° |
| 2026-05-06 20:39 | 40.48766 | -3.57800 | 1994 ft | 32 kts | 269° |
| 2026-05-06 20:39 | 40.48753 | -3.58015 | 2002 ft | 16 kts | 244° |
| 2026-05-06 20:39 | 40.48650 | -3.58047 | 2003 ft | 19 kts | 176° |
| 2026-05-06 20:40 | 40.48522 | -3.57986 | 2000 ft | 20 kts | 147° |
| 2026-05-06 20:40 | 40.48367 | -3.57864 | 1992 ft | 31 kts | 148° |
| 2026-05-06 20:40 | 40.48177 | -3.57671 | 1997 ft | 37 kts | 142° |
| 2026-05-06 20:40 | 40.47973 | -3.57464 | 2003 ft | 36 kts | 142° |
| 2026-05-06 20:41 | 40.47775 | -3.57266 | 2002 ft | 37 kts | 142° |
| 2026-05-06 20:41 | 40.47567 | -3.57050 | 1994 ft | 39 kts | 142° |
| 2026-05-06 20:41 | 40.47389 | -3.56873 | 1989 ft | 19 kts | 144° |
| 2026-05-06 20:41 | 40.47294 | -3.56899 | 1987 ft | 17 kts | 217° |
| 2026-05-06 20:42 | 40.47173 | -3.56909 | 1986 ft | 15 kts | 154° |
| 2026-05-06 20:42 | 40.47112 | -3.56876 | 1985 ft | 3 kts | 200° |
| 2026-05-06 20:42 | 40.47094 | -3.56899 | 1983 ft | 4 kts | 229° |
| 2026-05-06 20:42 | 40.47077 | -3.56926 | 1983 ft | 4 kts | 232° |
| 2026-05-06 20:43 | 40.47069 | -3.56940 | 1983 ft | 0 kts | 232° |
| 2026-05-06 20:43 | 40.47068 | -3.56941 | 1983 ft | 1 kts | 232° |
| 2026-05-06 20:43 | 40.47067 | -3.56943 | 1983 ft | 0 kts | 232° |
| 2026-05-06 20:45 | 40.41745 | -3.47977 | 3108 ft | 0 kts | 322° |